createdAt,value
2022-09-05T00:00:20.599Z,12.90
2022-09-05T00:03:28.721Z,12.90
2022-09-05T00:06:16.572Z,12.91
2022-09-05T00:09:31.261Z,12.92
2022-09-05T00:12:18.538Z,12.94
2022-09-05T00:15:18.280Z,12.94
2022-09-05T00:23:19.981Z,12.95
2022-09-05T00:24:18.154Z,12.90
2022-09-05T00:24:26.335Z,12.92
2022-09-05T00:27:24.881Z,12.93
2022-09-05T00:31:05.853Z,12.95
2022-09-05T00:33:26.446Z,12.97
2022-09-05T00:36:21.591Z,12.96
2022-09-05T00:39:10.973Z,12.98
2022-09-05T00:41:59.261Z,13.00
2022-09-05T00:44:48.402Z,13.01
2022-09-05T00:47:56.426Z,13.04
2022-09-05T00:50:45.718Z,13.05
2022-09-05T00:53:53.799Z,13.05
2022-09-05T00:56:48.409Z,13.07
2022-09-05T01:00:17.081Z,13.07
2022-09-05T01:03:10.635Z,13.07
2022-09-05T01:06:00.245Z,13.07
2022-09-05T01:09:07.877Z,13.08
2022-09-05T01:12:08.550Z,13.09
2022-09-05T01:15:07.944Z,13.10
2022-09-05T01:18:12.897Z,13.11
2022-09-05T01:21:10.981Z,13.09
2022-09-05T01:24:28.054Z,13.10
2022-09-05T01:27:41.004Z,13.10
2022-09-05T01:30:37.736Z,13.07
2022-09-05T01:33:43.822Z,13.05
2022-09-05T01:37:00.335Z,13.02
2022-09-05T01:40:21.203Z,12.99
2022-09-05T01:43:26.036Z,12.95
2022-09-05T01:46:39.063Z,12.88
2022-09-05T01:49:34.670Z,12.82
2022-09-05T01:52:36.616Z,12.75
2022-09-05T01:55:34.915Z,12.72
2022-09-05T01:58:50.267Z,12.69
2022-09-05T02:01:45.388Z,12.67
2022-09-05T02:04:37.416Z,12.62
2022-09-05T02:07:31.918Z,12.57
2022-09-05T02:10:39.245Z,12.55
2022-09-05T02:13:37.832Z,12.52
2022-09-05T02:16:38.669Z,12.51
2022-09-05T02:19:27.970Z,12.49
2022-09-05T02:22:17.033Z,12.45
2022-09-05T02:25:33.853Z,12.41
2022-09-05T02:28:12.267Z,12.39
2022-09-05T02:31:19.921Z,12.39
2022-09-05T02:34:02.405Z,12.36
2022-09-05T02:36:52.006Z,12.29
2022-09-05T02:45:00.595Z,12.32
2022-09-05T02:45:09.339Z,12.30
2022-09-05T02:46:09.826Z,12.28
2022-09-05T02:49:01.858Z,12.23
2022-09-05T02:57:29.793Z,12.20
2022-09-05T02:57:42.486Z,12.17
2022-09-05T02:58:08.029Z,12.16
2022-09-05T03:00:38.449Z,12.17
2022-09-05T03:03:44.325Z,12.19
2022-09-05T03:06:34.481Z,12.17
2022-09-05T03:09:30.742Z,12.17
2022-09-05T03:12:29.923Z,12.14
2022-09-05T03:15:31.695Z,12.11
2022-09-05T03:18:27.113Z,12.10
2022-09-05T03:21:39.182Z,12.07
2022-09-05T03:24:34.872Z,12.03
2022-09-05T03:27:41.079Z,12.02
2022-09-05T03:31:04.185Z,11.99
2022-09-05T03:34:08.995Z,11.97
2022-09-05T03:37:01.796Z,11.94
2022-09-05T03:39:54.170Z,11.92
2022-09-05T03:43:03.425Z,11.91
2022-09-05T03:46:04.077Z,11.91
2022-09-05T03:50:41.536Z,11.92
2022-09-05T03:57:08.931Z,11.91
2022-09-05T03:57:21.028Z,11.94
2022-09-05T03:58:59.616Z,11.97
2022-09-05T04:04:31.764Z,11.97
2022-09-05T04:08:13.382Z,11.97
2022-09-05T04:08:24.460Z,12.03
2022-09-05T04:10:33.680Z,12.07
2022-09-05T04:13:35.227Z,12.12
2022-09-05T04:16:30.844Z,12.16
2022-09-05T04:19:23.172Z,12.23
2022-09-05T04:22:15.526Z,12.30
2022-09-05T04:25:07.978Z,12.26
2022-09-05T04:28:03.563Z,12.45
2022-09-05T04:31:04.694Z,13.17
2022-09-05T04:34:11.754Z,14.31
2022-09-05T04:37:06.871Z,15.46
2022-09-05T04:39:52.942Z,16.64
2022-09-05T04:42:39.691Z,17.56
2022-09-05T04:45:27.153Z,18.18
2022-09-05T04:48:15.821Z,18.57
2022-09-05T04:51:06.733Z,19.15
2022-09-05T04:54:05.743Z,19.85
2022-09-05T04:56:54.853Z,20.51
2022-09-05T05:05:34.444Z,20.88
2022-09-05T05:06:05.614Z,21.28
2022-09-05T05:06:16.673Z,21.65
2022-09-05T05:08:42.396Z,21.96
2022-09-05T05:16:31.166Z,21.88
2022-09-05T05:18:02.407Z,22.10
2022-09-05T05:18:42.510Z,22.66
2022-09-05T05:20:55.503Z,23.24
2022-09-05T05:23:50.929Z,23.65
2022-09-05T05:26:57.346Z,23.84
2022-09-05T05:30:06.947Z,23.71
2022-09-05T05:32:53.655Z,23.72
2022-09-05T05:35:48.111Z,23.92
2022-09-05T05:38:53.087Z,23.99
2022-09-05T05:41:51.584Z,23.91
2022-09-05T05:44:38.245Z,23.81
2022-09-05T05:47:32.254Z,23.63
2022-09-05T05:50:42.713Z,23.48
2022-09-05T05:53:52.141Z,23.30
2022-09-05T05:57:01.965Z,23.17
2022-09-05T06:00:00.306Z,23.21
2022-09-05T06:03:26.250Z,23.37
2022-09-05T06:06:38.333Z,23.41
2022-09-05T06:14:31.272Z,23.50
2022-09-05T06:14:57.365Z,23.61
2022-09-05T06:15:40.770Z,23.77
2022-09-05T06:18:58.960Z,24.01
2022-09-05T06:22:23.263Z,23.84
2022-09-05T06:25:30.008Z,23.43
2022-09-05T06:28:21.864Z,23.08
2022-09-05T06:31:29.871Z,22.83
2022-09-05T06:34:35.719Z,22.68
2022-09-05T06:37:43.167Z,22.35
2022-09-05T06:40:47.315Z,22.21
2022-09-05T06:44:09.813Z,22.00
2022-09-05T06:47:23.269Z,21.70
2022-09-05T06:50:24.598Z,21.92
2022-09-05T06:53:33.860Z,21.90
2022-09-05T06:56:50.941Z,21.98
2022-09-05T06:59:45.676Z,22.04
2022-09-05T07:03:00.079Z,22.11
2022-09-05T07:06:05.034Z,22.35
2022-09-05T07:09:08.519Z,22.67
2022-09-05T07:12:01.842Z,23.03
2022-09-05T07:15:14.358Z,23.53
2022-09-05T07:18:31.173Z,23.74
2022-09-05T07:21:31.585Z,23.82
2022-09-05T07:24:53.499Z,24.03
2022-09-05T07:27:12.688Z,24.36
2022-09-05T07:30:01.056Z,24.69
2022-09-05T07:32:49.565Z,24.54
2022-09-05T07:35:41.943Z,24.33
2022-09-05T07:38:32.575Z,24.13
2022-09-05T07:41:26.207Z,24.26
2022-09-05T07:44:18.633Z,24.27
2022-09-05T07:47:08.885Z,24.18
2022-09-05T07:50:13.978Z,24.07
2022-09-05T07:56:55.975Z,23.85
2022-09-05T07:57:01.852Z,24.00
2022-09-05T07:58:29.634Z,23.69
2022-09-05T08:01:18.884Z,23.56
2022-09-05T08:04:05.525Z,23.45
2022-09-05T08:07:45.754Z,23.33
2022-09-05T08:10:08.364Z,23.36
2022-09-05T08:13:22.678Z,23.45
2022-09-05T08:16:00.696Z,23.75
2022-09-05T08:18:37.071Z,24.07
2022-09-05T08:21:33.257Z,24.26
2022-09-05T08:24:36.090Z,24.61
2022-09-05T08:27:35.427Z,24.84
2022-09-05T08:30:25.154Z,24.87
2022-09-05T08:33:15.699Z,24.86
2022-09-05T08:36:11.009Z,24.82
2022-09-05T08:38:59.266Z,24.83
2022-09-05T08:42:16.613Z,25.02
2022-09-05T08:46:44.172Z,25.08
2022-09-05T08:48:23.680Z,25.30
2022-09-05T08:51:19.222Z,25.60
2022-09-05T08:54:34.410Z,25.61
2022-09-05T08:57:46.690Z,25.11
2022-09-05T09:00:43.917Z,25.11
2022-09-05T09:03:52.018Z,25.17
2022-09-05T09:07:30.795Z,25.35
2022-09-05T09:09:44.494Z,25.55
2022-09-05T09:12:58.559Z,25.80
2022-09-05T09:16:11.691Z,26.17
2022-09-05T09:19:00.971Z,26.46
2022-09-05T09:22:05.274Z,26.60
2022-09-05T09:25:09.208Z,26.76
2022-09-05T09:28:48.538Z,26.98
2022-09-05T09:31:08.372Z,27.24
2022-09-05T09:34:09.557Z,27.05
2022-09-05T09:37:31.954Z,27.11
2022-09-05T09:40:33.629Z,27.42
2022-09-05T09:43:52.629Z,27.53
2022-09-05T09:46:44.221Z,27.72
2022-09-05T09:49:33.100Z,27.66
2022-09-05T09:52:40.840Z,27.20
2022-09-05T09:55:41.934Z,26.95
2022-09-05T09:58:43.286Z,26.84
2022-09-05T10:01:35.126Z,26.82
2022-09-05T10:10:32.730Z,26.81
2022-09-05T10:10:45.886Z,26.79
2022-09-05T10:11:34.047Z,26.50
2022-09-05T10:14:36.787Z,26.04
2022-09-05T10:17:11.429Z,26.04
2022-09-05T10:20:37.483Z,26.39
2022-09-05T10:23:32.873Z,26.60
2022-09-05T10:26:35.169Z,26.68
2022-09-05T10:29:41.103Z,26.83
2022-09-05T10:35:04.510Z,26.89
2022-09-05T10:35:39.466Z,26.88
2022-09-05T10:38:28.602Z,26.73
2022-09-05T10:41:21.821Z,26.53
2022-09-05T10:44:09.869Z,26.37
2022-09-05T10:47:11.312Z,26.20
2022-09-05T10:50:25.582Z,25.95
2022-09-05T10:53:39.184Z,25.75
2022-09-05T10:56:28.657Z,25.51
2022-09-05T11:02:19.843Z,25.29
2022-09-05T11:02:38.412Z,24.96
2022-09-05T11:05:31.185Z,24.83
2022-09-05T11:08:20.486Z,24.83
2022-09-05T11:11:28.670Z,24.87
2022-09-05T11:14:11.230Z,24.78
2022-09-05T11:17:04.059Z,24.59
2022-09-05T11:19:56.455Z,24.42
2022-09-05T11:22:44.128Z,24.25
2022-09-05T11:25:40.450Z,24.04
2022-09-05T11:28:21.326Z,24.12
2022-09-05T11:31:10.415Z,24.29
2022-09-05T11:36:27.550Z,24.63
2022-09-05T11:40:07.557Z,24.74
2022-09-05T11:40:30.085Z,24.80
2022-09-05T11:42:50.309Z,24.98
2022-09-05T11:45:42.326Z,25.26
2022-09-05T11:48:58.715Z,25.32
2022-09-05T11:52:11.673Z,25.25
2022-09-05T11:55:30.170Z,25.15
2022-09-05T11:58:45.473Z,25.01
2022-09-05T12:01:42.194Z,25.06
2022-09-05T12:04:45.815Z,25.04
2022-09-05T12:07:43.031Z,25.12
2022-09-05T12:10:51.024Z,25.22
2022-09-05T12:13:53.554Z,25.31
2022-09-05T12:16:48.775Z,25.51
2022-09-05T12:20:02.399Z,25.71
2022-09-05T12:23:03.702Z,25.79
2022-09-05T12:27:42.788Z,25.81
2022-09-05T12:29:27.658Z,25.85
2022-09-05T12:33:39.382Z,25.84
2022-09-05T12:40:58.197Z,25.89
2022-09-05T12:41:38.118Z,25.92
2022-09-05T12:42:09.902Z,25.88
2022-09-05T12:44:38.705Z,25.93
2022-09-05T12:46:26.925Z,25.95
2022-09-05T12:49:24.809Z,26.03
2022-09-05T12:52:36.099Z,26.11
2022-09-05T12:55:25.378Z,26.18
2022-09-05T13:02:58.007Z,26.25
2022-09-05T13:03:12.523Z,26.31
2022-09-05T13:04:19.572Z,26.25
2022-09-05T13:07:09.218Z,26.12
2022-09-05T13:11:41.176Z,26.03
2022-09-05T13:14:59.830Z,25.91
2022-09-05T13:15:40.381Z,25.86
2022-09-05T13:18:34.400Z,25.79
2022-09-05T13:21:23.617Z,25.79
2022-09-05T13:24:11.861Z,25.62
2022-09-05T13:27:15.045Z,25.52
2022-09-05T13:31:56.384Z,25.53
2022-09-05T13:38:07.302Z,25.58
2022-09-05T13:38:17.350Z,25.61
2022-09-05T13:39:06.056Z,25.67
2022-09-05T13:41:59.671Z,25.73
2022-09-05T13:44:47.195Z,25.81
2022-09-05T13:47:42.473Z,25.78
2022-09-05T13:50:34.097Z,25.78
2022-09-05T13:53:39.342Z,25.73
2022-09-05T13:56:28.465Z,25.71
2022-09-05T13:59:14.771Z,25.67
2022-09-05T14:02:27.210Z,25.71
2022-09-05T14:05:20.780Z,25.71
2022-09-05T14:08:11.359Z,25.84
2022-09-05T14:11:23.939Z,25.83
2022-09-05T14:20:27.403Z,24.67
2022-09-05T14:23:13.422Z,24.40
2022-09-05T14:26:01.851Z,24.00
2022-09-05T14:29:08.155Z,23.49
2022-09-05T14:37:51.713Z,22.95
2022-09-05T14:37:54.429Z,23.20
2022-09-05T14:38:05.619Z,22.63
2022-09-05T14:40:29.558Z,22.34
2022-09-05T14:43:26.950Z,22.15
2022-09-05T14:46:13.870Z,21.90
2022-09-05T14:49:01.322Z,21.79
2022-09-05T14:51:39.181Z,21.64
2022-09-05T15:00:38.616Z,21.56
2022-09-05T15:02:52.812Z,21.43
2022-09-05T15:02:57.573Z,21.35
2022-09-05T15:04:47.179Z,21.34
2022-09-05T15:07:21.123Z,21.26
2022-09-05T15:12:14.752Z,21.07
2022-09-05T15:12:31.333Z,20.96
2022-09-05T15:14:58.969Z,20.83
2022-09-05T15:17:27.105Z,20.78
2022-09-05T15:20:05.916Z,20.79
2022-09-05T15:22:32.597Z,20.80
2022-09-05T15:25:17.364Z,20.81
2022-09-05T15:27:40.159Z,20.84
2022-09-05T15:30:12.826Z,20.87
2022-09-05T15:32:42.088Z,20.89
2022-09-05T15:35:12.836Z,20.90
2022-09-05T15:37:42.126Z,20.94
2022-09-05T15:40:22.358Z,20.97
2022-09-05T15:43:00.123Z,20.95
2022-09-05T15:45:31.152Z,20.93
2022-09-05T15:48:18.152Z,20.88
2022-09-05T15:50:50.717Z,20.84
2022-09-05T15:53:36.355Z,20.78
2022-09-05T15:56:16.360Z,20.72
2022-09-05T15:58:54.852Z,20.65
2022-09-05T16:01:58.713Z,20.60
2022-09-05T16:09:45.186Z,20.54
2022-09-05T16:10:38.385Z,20.46
2022-09-05T16:10:46.052Z,20.39
2022-09-05T16:14:17.100Z,20.23
2022-09-05T16:23:13.152Z,20.14
2022-09-05T16:23:29.524Z,20.02
2022-09-05T16:23:36.476Z,19.89
2022-09-05T16:25:00.255Z,19.81
2022-09-05T16:27:20.495Z,19.72
2022-09-05T16:29:49.659Z,19.65
2022-09-05T16:32:22.294Z,19.54
2022-09-05T16:34:55.245Z,19.43
2022-09-05T16:37:28.677Z,19.33
2022-09-05T16:40:03.153Z,19.20
2022-09-05T16:42:51.816Z,19.07
2022-09-05T16:45:28.902Z,18.93
2022-09-05T16:48:05.754Z,18.82
2022-09-05T16:50:50.184Z,18.72
2022-09-05T16:53:30.735Z,18.63
2022-09-05T16:56:15.825Z,18.51
2022-09-05T16:58:49.707Z,18.41
2022-09-05T17:01:54.890Z,18.32
2022-09-05T17:04:39.304Z,18.26
2022-09-05T17:07:10.708Z,18.18
2022-09-05T17:09:43.089Z,18.12
2022-09-05T17:12:21.423Z,18.06
2022-09-05T17:14:48.486Z,17.99
2022-09-05T17:18:18.250Z,17.93
2022-09-05T17:20:06.806Z,17.86
2022-09-05T17:26:39.038Z,17.81
2022-09-05T17:29:30.090Z,17.75
2022-09-05T17:29:37.962Z,17.64
2022-09-05T17:33:26.036Z,17.53
2022-09-05T17:36:40.823Z,17.45
2022-09-05T17:39:14.233Z,17.38
2022-09-05T17:42:02.503Z,17.31
2022-09-05T17:44:53.796Z,17.27
2022-09-05T17:47:36.367Z,17.17
2022-09-05T17:50:18.394Z,17.10
2022-09-05T17:53:25.305Z,17.03
2022-09-05T17:55:46.999Z,16.95
2022-09-05T17:58:34.673Z,16.88
2022-09-05T18:01:05.043Z,16.81
2022-09-05T18:03:40.760Z,16.74
2022-09-05T18:06:18.140Z,16.67
2022-09-05T18:08:49.169Z,16.61
2022-09-05T18:14:00.950Z,16.47
2022-09-05T18:17:35.273Z,16.42
2022-09-05T18:19:33.272Z,16.37
2022-09-05T18:21:57.428Z,16.32
2022-09-05T18:24:42.578Z,16.27
2022-09-05T18:28:03.154Z,16.20
2022-09-05T18:30:03.277Z,16.18
2022-09-05T18:32:41.683Z,16.13
2022-09-05T18:35:26.448Z,16.12
2022-09-05T18:37:52.011Z,16.10
2022-09-05T18:40:42.992Z,16.09
2022-09-05T18:43:13.891Z,16.08
2022-09-05T18:45:52.116Z,16.05
2022-09-05T18:48:30.023Z,16.01
2022-09-05T18:51:15.353Z,15.96
2022-09-05T18:53:31.587Z,15.87
2022-09-05T18:56:20.529Z,15.81
2022-09-05T18:58:51.728Z,15.76
2022-09-05T19:01:33.303Z,15.73
2022-09-05T19:04:03.494Z,15.69
2022-09-05T19:06:35.632Z,15.67
2022-09-05T19:09:06.795Z,15.65
2022-09-05T19:11:52.868Z,15.61
2022-09-05T19:14:33.551Z,15.56
2022-09-05T19:17:07.716Z,15.48
2022-09-05T19:19:58.076Z,15.40
2022-09-05T19:23:08.911Z,15.37
2022-09-05T19:24:53.377Z,15.31
2022-09-05T19:29:00.035Z,15.19
2022-09-05T19:36:45.840Z,15.23
2022-09-05T19:36:54.260Z,15.23
2022-09-05T19:37:03.123Z,15.20
2022-09-05T19:37:29.661Z,15.15
2022-09-05T19:42:48.035Z,15.12
2022-09-05T19:47:29.203Z,15.09
2022-09-05T19:47:45.337Z,15.06
2022-09-05T19:48:04.030Z,15.04
2022-09-05T19:50:10.756Z,15.00
2022-09-05T19:52:39.514Z,14.96
2022-09-05T19:55:23.942Z,14.94
2022-09-05T19:58:18.564Z,14.92
2022-09-05T20:00:25.293Z,14.86
2022-09-05T20:02:55.556Z,14.82
2022-09-05T20:05:23.404Z,14.79
2022-09-05T20:07:58.444Z,14.76
2022-09-05T20:10:29.507Z,14.74
2022-09-05T20:12:58.569Z,14.69
2022-09-05T20:15:36.175Z,14.67
2022-09-05T20:18:22.897Z,14.65
2022-09-05T20:21:10.835Z,14.63
2022-09-05T20:23:44.038Z,14.59
2022-09-05T20:26:12.067Z,14.53
2022-09-05T20:28:41.132Z,14.49
2022-09-05T20:31:22.654Z,14.46
2022-09-05T20:33:53.087Z,14.44
2022-09-05T20:43:17.746Z,14.37
2022-09-05T20:43:18.586Z,14.39
2022-09-05T20:43:30.954Z,14.36
2022-09-05T20:44:24.823Z,14.37
2022-09-05T20:52:45.908Z,14.38
2022-09-05T20:54:13.131Z,14.40
2022-09-05T20:54:25.245Z,14.40
2022-09-05T20:55:38.019Z,14.39
2022-09-05T20:57:44.111Z,14.41
2022-09-05T21:00:18.363Z,14.40
2022-09-05T21:02:55.331Z,14.42
2022-09-05T21:05:26.633Z,14.45
2022-09-05T21:08:19.015Z,14.47
2022-09-05T21:10:54.982Z,14.49
2022-09-05T21:13:31.187Z,14.50
2022-09-05T21:15:59.464Z,14.51
2022-09-05T21:18:33.784Z,14.53
2022-09-05T21:21:10.304Z,14.54
2022-09-05T21:23:38.054Z,14.57
2022-09-05T21:26:24.351Z,14.58
2022-09-05T21:29:15.551Z,14.57
2022-09-05T21:31:54.354Z,14.56
2022-09-05T21:34:27.769Z,14.58
2022-09-05T21:37:06.385Z,14.58
2022-09-05T21:39:28.818Z,14.59
2022-09-05T21:41:59.422Z,14.60
2022-09-05T21:47:39.616Z,14.61
2022-09-05T21:47:42.894Z,14.62
2022-09-05T21:49:25.458Z,14.63
2022-09-05T21:51:53.573Z,14.64
2022-09-05T21:59:14.355Z,14.64
2022-09-05T21:59:22.461Z,14.63
2022-09-05T21:59:40.066Z,14.61
2022-09-05T22:02:03.813Z,14.59
2022-09-05T22:04:33.183Z,14.58
2022-09-05T22:07:03.042Z,14.57
2022-09-05T22:09:30.589Z,14.58
2022-09-05T22:11:58.008Z,14.56
2022-09-05T22:14:25.418Z,14.55
2022-09-05T22:16:55.513Z,14.54
2022-09-05T22:19:34.006Z,14.51
2022-09-05T22:22:00.242Z,14.50
2022-09-05T22:24:30.951Z,14.47
2022-09-05T22:27:11.180Z,14.48
2022-09-05T22:29:30.563Z,14.44
2022-09-05T22:31:58.691Z,14.41
2022-09-05T22:34:27.627Z,14.36
2022-09-05T22:36:55.497Z,14.33
2022-09-05T22:39:36.471Z,14.32
2022-09-05T22:41:52.376Z,14.29
2022-09-05T22:44:20.395Z,14.27
2022-09-05T22:46:47.886Z,14.27
2022-09-05T22:49:15.280Z,14.25
2022-09-05T22:51:42.920Z,14.24
2022-09-05T22:54:10.154Z,14.24
2022-09-05T22:56:37.931Z,14.24
2022-09-05T22:59:05.598Z,14.24
2022-09-05T23:01:33.656Z,14.23
2022-09-05T23:04:01.263Z,14.22
2022-09-05T23:06:28.748Z,14.21
2022-09-05T23:08:56.122Z,14.20
2022-09-05T23:11:23.623Z,14.17
2022-09-05T23:13:50.981Z,14.14
2022-09-05T23:16:18.583Z,14.11
2022-09-05T23:18:46.193Z,14.07
2022-09-05T23:21:16.859Z,14.04
2022-09-05T23:23:44.635Z,14.02
2022-09-05T23:26:14.297Z,13.99
2022-09-05T23:28:43.478Z,13.99
2022-09-05T23:31:11.973Z,13.95
2022-09-05T23:33:41.350Z,13.92
2022-09-05T23:36:12.880Z,13.88
2022-09-05T23:38:43.511Z,13.86
2022-09-05T23:41:12.566Z,13.83
2022-09-05T23:43:39.964Z,13.81
2022-09-05T23:46:07.702Z,13.79
2022-09-05T23:48:35.239Z,13.77
2022-09-05T23:51:08.496Z,13.74
2022-09-05T23:53:36.088Z,13.72
2022-09-05T23:56:05.039Z,13.70
2022-09-05T23:58:32.917Z,13.67
